Gomel', Belarus
Current Conditions -  °F | °C
As of 1:00 AM on Saturday 25 Oct 2014 (Local Time) from UMGG Reporting Station
Clear Clear  
Wind Chill: 13°   Ceiling: Unl
Heat Index: 19°   Visibility: 4mi
Dew Point: 18°   Wind: 4mph
Humidity: 93%   Direction: 70°ENE
Pressure: 30.62"   Gusts: NA
Location:  52.45°N, 31°E
Report Text: UMGG 242300Z 07002MPS 6000 NSC M07/M08 Q1037 R10/CLRD// NOSIG
Loading
Personal Weather Stations






























Interactive Weather Map
Tropical Storm Tracking
New forecast layout! Learn more

10-Day Weather Forecast

Advertisements
Track Severe Weather on mobile